Time;durP1;ratioP1;P1;durP2;ratioP2;P2;SDS_P1;SDS_P2;PMS_P1;PMS_P2;Temp;Humidity;BMP_temperature;BMP_pressure;BME280_temperature;BME280_humidity;BME280_pressure;Samples;Min_cycle;Max_cycle;Signal;HPM_P1;HPM_P2
2022/02/02 00:00:51;;;;;;;;;;;8.90;99.90;;;;;;2098003;28;20249;-70
2022/02/02 00:03:10;;;;;;;;;;;8.90;99.90;;;;;;2094531;28;19916;-71
2022/02/02 00:04:15;;;;;;;;;;;8.90;99.90;;;;;;2099218;28;19958;-71
2022/02/02 00:05:25;;;;;;;;;;;8.90;99.90;;;;;;2100372;28;19912;-70
2022/02/02 00:06:35;;;;;;;;;;;8.90;99.90;;;;;;2101909;28;19919;-70
2022/02/02 00:07:40;;;;;;;;;;;8.90;99.90;;;;;;2104288;28;20031;-71
2022/02/02 00:09:03;;;;;;;;;;;8.90;99.90;;;;;;2105254;28;19912;-71
2022/02/02 00:10:24;;;;;;;;;;;8.90;99.90;;;;;;2100025;28;19916;-71
2022/02/02 00:12:48;;;;;;;;;;;8.90;99.90;;;;;;2100281;28;19916;-71
2022/02/02 00:15:02;;;;;;;;;;;8.90;99.90;;;;;;2100023;28;19916;-71
2022/02/02 00:16:23;;;;;;;;;;;8.90;99.90;;;;;;2100847;28;20268;-71
2022/02/02 00:18:57;;;;;;;;;;;8.90;99.90;;;;;;2109172;28;19994;-71
2022/02/02 00:20:11;;;;;;;;;;;8.90;99.90;;;;;;2101282;28;19909;-71
2022/02/02 00:21:21;;;;;;;;;;;8.90;99.90;;;;;;2102750;28;19958;-71
2022/02/02 00:22:28;;;;;;;;;;;9.00;99.90;;;;;;2098319;28;19919;-71
2022/02/02 00:23:35;;;;;;;;;;;9.00;99.90;;;;;;2099900;28;19999;-71
2022/02/02 00:26:08;;;;;;;;;;;9.00;99.90;;;;;;2084355;28;19909;-71
2022/02/02 00:27:11;;;;;;;;;;;8.90;99.90;;;;;;2101459;28;19919;-71
2022/02/02 00:28:12;;;;;;;;;;;9.00;99.90;;;;;;2101167;28;19908;-71
2022/02/02 00:29:18;;;;;;;;;;;8.90;99.90;;;;;;2100630;28;19948;-71
2022/02/02 00:30:21;;;;;;;;;;;8.90;99.90;;;;;;2098236;28;19913;-71
2022/02/02 00:31:28;;;;;;;;;;;8.90;99.90;;;;;;2112155;28;19908;-71
2022/02/02 00:32:50;;;;;;;;;;;8.90;99.90;;;;;;2112313;27;19918;-71
2022/02/02 00:33:57;;;;;;;;;;;8.90;99.90;;;;;;2103529;28;19923;-71
2022/02/02 00:34:58;;;;;;;;;;;8.90;99.90;;;;;;2102304;28;19908;-71
2022/02/02 00:36:37;;;;;;;;;;;8.90;99.90;;;;;;2108417;28;19923;-71
2022/02/02 00:37:25;;;;;;;;;;;9.00;99.90;;;;;;2105692;28;19923;-71
2022/02/02 00:38:25;;;;;;;;;;;8.90;99.90;;;;;;2098563;28;19909;-71
2022/02/02 00:39:27;;;;;;;;;;;8.90;99.90;;;;;;2102945;28;19912;-71
2022/02/02 00:40:28;;;;;;;;;;;8.90;99.90;;;;;;2099764;28;19956;-71
2022/02/02 00:41:28;;;;;;;;;;;8.90;99.90;;;;;;2102957;28;19912;-71
2022/02/02 00:42:29;;;;;;;;;;;8.90;99.90;;;;;;2104030;28;19912;-71
2022/02/02 00:43:30;;;;;;;;;;;8.90;99.90;;;;;;2098018;28;20275;-71
2022/02/02 00:44:30;;;;;;;;;;;8.90;99.90;;;;;;2108665;28;20035;-71
2022/02/02 00:45:39;;;;;;;;;;;8.90;99.90;;;;;;2109565;28;19907;-71
2022/02/02 00:46:40;;;;;;;;;;;8.90;99.90;;;;;;2098265;28;19912;-71
2022/02/02 00:47:43;;;;;;;;;;;8.90;99.90;;;;;;2093750;28;19912;-71
2022/02/02 00:48:48;;;;;;;;;;;8.90;99.90;;;;;;2096216;28;19981;-71
2022/02/02 00:49:49;;;;;;;;;;;8.90;99.90;;;;;;2103423;28;19914;-72
2022/02/02 00:50:50;;;;;;;;;;;8.90;99.90;;;;;;2104059;28;20037;-71
2022/02/02 00:51:56;;;;;;;;;;;8.90;99.90;;;;;;2102849;28;20045;-71
2022/02/02 00:52:56;;;;;;;;;;;8.90;99.90;;;;;;2104199;28;19943;-71
2022/02/02 00:53:57;;;;;;;;;;;8.90;99.90;;;;;;2101293;28;19919;-71
2022/02/02 00:54:57;;;;;;;;;;;8.90;99.90;;;;;;2098609;28;19919;-71
2022/02/02 00:55:58;;;;;;;;;;;8.90;99.90;;;;;;2098783;28;19912;-71
2022/02/02 00:56:58;;;;;;;;;;;8.80;99.90;;;;;;2103106;28;20013;-71
2022/02/02 00:57:59;;;;;;;;;;;8.90;99.90;;;;;;2098455;28;19965;-71
2022/02/02 00:59:00;;;;;;;;;;;8.80;99.90;;;;;;2101055;28;19915;-71
2022/02/02 01:00:00;;;;;;;;;;;8.80;99.90;;;;;;2101506;28;19983;-70
2022/02/02 01:01:01;;;;;;;;;;;8.80;99.90;;;;;;2098486;28;19908;-71
2022/02/02 01:02:02;;;;;;;;;;;8.80;99.90;;;;;;2101346;28;19907;-71
2022/02/02 01:03:03;;;;;;;;;;;8.80;99.90;;;;;;2099576;28;19916;-71
2022/02/02 01:04:03;;;;;;;;;;;8.80;99.90;;;;;;2101772;28;19978;-71
2022/02/02 01:05:04;;;;;;;;;;;8.80;99.90;;;;;;2100479;28;19939;-70
2022/02/02 01:06:07;;;;;;;;;;;8.80;99.90;;;;;;2101113;28;19908;-71
2022/02/02 01:07:27;;;;;;;;;;;8.80;99.90;;;;;;2104152;28;20390;-71
2022/02/02 01:09:44;;;;;;;;;;;8.70;99.90;;;;;;2102758;28;19920;-71
2022/02/02 01:13:22;;;;;;;;;;;8.70;99.90;;;;;;2097866;28;19914;-71
2022/02/02 01:18:20;;;;;;;;;;;8.70;99.90;;;;;;2102465;28;20370;-71
2022/02/02 01:20:34;;;;;;;;;;;8.70;99.90;;;;;;2098704;28;19914;-71
2022/02/02 01:28:23;;;;;;;;;;;8.70;99.90;;;;;;2097906;28;20412;-70
2022/02/02 01:29:23;;;;;;;;;;;8.70;99.90;;;;;;2102452;28;19945;-71
2022/02/02 01:30:24;;;;;;;;;;;8.70;99.90;;;;;;2105243;28;19908;-71
2022/02/02 01:31:24;;;;;;;;;;;8.70;99.90;;;;;;2101265;28;19922;-70
2022/02/02 01:32:25;;;;;;;;;;;8.70;99.90;;;;;;2106597;28;19912;-70
2022/02/02 01:33:26;;;;;;;;;;;8.70;99.90;;;;;;2105186;28;20362;-70
2022/02/02 01:34:27;;;;;;;;;;;8.70;99.90;;;;;;2104750;28;20033;-71
2022/02/02 01:35:27;;;;;;;;;;;8.70;99.90;;;;;;2100771;28;19931;-71
2022/02/02 01:36:28;;;;;;;;;;;8.70;99.90;;;;;;2098166;28;19913;-71
2022/02/02 01:37:29;;;;;;;;;;;8.70;99.90;;;;;;2104274;28;19915;-71
2022/02/02 01:38:33;;;;;;;;;;;8.70;99.90;;;;;;2097359;28;19950;-71
2022/02/02 01:39:34;;;;;;;;;;;8.70;99.90;;;;;;2100331;28;19912;-71
2022/02/02 01:40:40;;;;;;;;;;;8.70;99.90;;;;;;2101416;28;20317;-71
2022/02/02 01:41:43;;;;;;;;;;;8.70;99.90;;;;;;2098731;28;19933;-70
2022/02/02 01:42:51;;;;;;;;;;;8.70;99.90;;;;;;2101041;28;20480;-70
2022/02/02 01:44:23;;;;;;;;;;;8.70;99.90;;;;;;2101998;28;19912;-71
2022/02/02 01:45:19;;;;;;;;;;;8.70;99.90;;;;;;2099940;28;19904;-70
2022/02/02 01:46:21;;;;;;;;;;;8.70;99.90;;;;;;2098389;28;20527;-71
2022/02/02 01:47:27;;;;;;;;;;;8.70;99.90;;;;;;2103328;28;19926;-71
2022/02/02 01:48:38;;;;;;;;;;;8.70;99.90;;;;;;2102087;28;20008;-70
2022/02/02 01:55:18;;;;;;;;;;;8.70;99.90;;;;;;2101043;28;20373;-71
2022/02/02 01:55:56;;;;;;;;;;;8.70;99.90;;;;;;2099344;28;20363;-70
2022/02/02 01:57:01;;;;;;;;;;;8.70;99.90;;;;;;2100982;28;20320;-71
2022/02/02 01:58:10;;;;;;;;;;;8.70;99.90;;;;;;2099131;28;19912;-71
2022/02/02 01:59:27;;;;;;;;;;;8.70;99.90;;;;;;2100763;28;20371;-71
2022/02/02 02:00:28;;;;;;;;;;;8.70;99.90;;;;;;2101106;28;19961;-71
2022/02/02 02:01:29;;;;;;;;;;;8.70;99.90;;;;;;2099999;28;20351;-70
2022/02/02 02:02:30;;;;;;;;;;;8.70;99.90;;;;;;2100541;28;19912;-70
2022/02/02 02:03:30;;;;;;;;;;;8.70;99.90;;;;;;2104321;28;19912;-71
2022/02/02 02:04:31;;;;;;;;;;;8.70;99.90;;;;;;2102941;28;19967;-70
2022/02/02 02:05:31;;;;;;;;;;;8.70;99.90;;;;;;2099792;28;19908;-70
2022/02/02 02:06:31;;;;;;;;;;;8.70;99.90;;;;;;2099257;28;19946;-70
2022/02/02 02:07:32;;;;;;;;;;;8.70;99.90;;;;;;2098119;28;19915;-71
2022/02/02 02:08:37;;;;;;;;;;;8.70;99.90;;;;;;2100859;28;19999;-70
2022/02/02 02:09:38;;;;;;;;;;;8.70;99.90;;;;;;2103748;28;19919;-70
2022/02/02 02:10:38;;;;;;;;;;;8.70;99.90;;;;;;2099745;28;20015;-70
2022/02/02 02:11:43;;;;;;;;;;;8.70;99.90;;;;;;2102111;28;19950;-71
2022/02/02 02:12:53;;;;;;;;;;;8.70;99.90;;;;;;2101928;28;20428;-70
2022/02/02 02:14:32;;;;;;;;;;;8.70;99.90;;;;;;2099813;28;20283;-70
2022/02/02 02:15:18;;;;;;;;;;;8.70;99.90;;;;;;2101357;28;19916;-70
2022/02/02 02:16:19;;;;;;;;;;;8.70;99.90;;;;;;2101361;28;19920;-70
2022/02/02 02:17:22;;;;;;;;;;;8.70;99.90;;;;;;2099421;28;20007;-70
2022/02/02 02:18:22;;;;;;;;;;;8.70;99.90;;;;;;2105048;28;20381;-70
2022/02/02 02:19:24;;;;;;;;;;;8.70;99.90;;;;;;2101176;28;20311;-71
2022/02/02 02:20:24;;;;;;;;;;;8.70;99.90;;;;;;2100240;28;19916;-70
2022/02/02 02:21:25;;;;;;;;;;;8.60;99.90;;;;;;2100661;28;19958;-71
2022/02/02 02:22:27;;;;;;;;;;;8.70;99.90;;;;;;2098555;28;20025;-70
2022/02/02 02:23:29;;;;;;;;;;;8.70;99.90;;;;;;2102468;28;20003;-71
2022/02/02 02:24:30;;;;;;;;;;;8.70;99.90;;;;;;2099893;28;19912;-70
2022/02/02 02:25:31;;;;;;;;;;;8.70;99.90;;;;;;2096631;28;19912;-70
2022/02/02 02:26:34;;;;;;;;;;;8.70;99.90;;;;;;2096882;28;19912;-70
2022/02/02 02:27:35;;;;;;;;;;;8.70;99.90;;;;;;2100517;28;19938;-71
2022/02/02 02:31:17;;;;;;;;;;;8.60;99.90;;;;;;2106484;28;19918;-70
2022/02/02 02:32:32;;;;;;;;;;;8.60;99.90;;;;;;2094220;28;19912;-74
2022/02/02 02:33:56;;;;;;;;;;;8.60;99.90;;;;;;2112419;28;20342;-70
2022/02/02 02:36:23;;;;;;;;;;;8.60;99.90;;;;;;2100865;28;19913;-70
2022/02/02 02:56:27;;;;;;;;;;;8.60;99.90;;;;;;2100679;28;19996;-71
2022/02/02 02:57:38;;;;;;;;;;;8.60;99.90;;;;;;2100622;28;19909;-70
2022/02/02 02:58:44;;;;;;;;;;;8.60;99.90;;;;;;2100664;28;19908;-71
2022/02/02 03:00:01;;;;;;;;;;;8.50;99.90;;;;;;2099837;28;20502;-71
2022/02/02 03:02:52;;;;;;;;;;;8.60;99.90;;;;;;2101774;28;19912;-71
2022/02/02 03:32:13;;;;;;;;;;;8.60;99.90;;;;;;2098627;28;19908;-70
2022/02/02 03:51:45;;;;;;;;;;;8.50;99.90;;;;;;2101896;28;19909;-70
2022/02/02 03:57:48;;;;;;;;;;;8.50;99.90;;;;;;2101993;28;19931;-71
2022/02/02 04:02:42;;;;;;;;;;;8.60;99.90;;;;;;2101291;28;20011;-71
2022/02/02 04:04:25;;;;;;;;;;;8.60;99.90;;;;;;2102009;28;19908;-71
2022/02/02 04:06:22;;;;;;;;;;;8.50;99.90;;;;;;2102182;28;19909;-70
2022/02/02 04:07:31;;;;;;;;;;;8.60;99.90;;;;;;2099341;28;19913;-70
2022/02/02 04:08:35;;;;;;;;;;;8.50;99.90;;;;;;2092973;28;19909;-70
2022/02/02 04:09:38;;;;;;;;;;;8.60;99.90;;;;;;2092694;28;19909;-70
2022/02/02 04:10:39;;;;;;;;;;;8.60;99.90;;;;;;2098969;28;19909;-70
2022/02/02 04:11:50;;;;;;;;;;;8.60;99.90;;;;;;2104657;28;19920;-70
2022/02/02 04:15:01;;;;;;;;;;;8.50;99.90;;;;;;2100101;28;20348;-71
2022/02/02 04:17:52;;;;;;;;;;;8.60;99.90;;;;;;2101656;28;19954;-70
2022/02/02 04:39:10;;;;;;;;;;;8.60;99.90;;;;;;2081281;28;19917;-70
2022/02/02 04:55:45;;;;;;;;;;;8.60;99.90;;;;;;2104515;28;19923;-70
2022/02/02 05:01:02;;;;;;;;;;;8.60;99.90;;;;;;2100720;28;20414;-70
2022/02/02 05:05:09;;;;;;;;;;;8.60;99.90;;;;;;2101021;28;20294;-71
2022/02/02 05:07:26;;;;;;;;;;;8.60;99.90;;;;;;2101273;28;19920;-71
2022/02/02 05:09:47;;;;;;;;;;;8.60;99.90;;;;;;2101261;28;19998;-72
2022/02/02 05:18:12;;;;;;;;;;;8.40;99.90;;;;;;2101788;28;19912;-72
2022/02/02 05:19:41;;;;;;;;;;;8.40;99.90;;;;;;2100988;28;20265;-72
2022/02/02 05:22:42;;;;;;;;;;;8.30;99.90;;;;;;2104511;28;20050;-73
2022/02/02 05:43:23;;;;;;;;;;;8.00;99.90;;;;;;2103242;28;19938;-72
2022/02/02 05:50:59;;;;;;;;;;;7.90;99.90;;;;;;2103185;28;19919;-72
2022/02/02 05:52:00;;;;;;;;;;;7.90;99.90;;;;;;2110217;28;20314;-72
2022/02/02 05:53:01;;;;;;;;;;;7.90;99.90;;;;;;2109988;28;19912;-72
2022/02/02 05:54:06;;;;;;;;;;;7.90;99.90;;;;;;2101175;28;19908;-72
2022/02/02 05:55:06;;;;;;;;;;;7.90;99.90;;;;;;2102103;28;19913;-72
2022/02/02 05:56:07;;;;;;;;;;;7.90;99.90;;;;;;2109732;28;19916;-72
2022/02/02 05:57:12;;;;;;;;;;;7.90;99.90;;;;;;2111170;28;19915;-72
2022/02/02 05:58:13;;;;;;;;;;;7.90;99.90;;;;;;2091532;28;20003;-72
2022/02/02 05:59:16;;;;;;;;;;;7.90;99.90;;;;;;2091384;28;19920;-72
2022/02/02 06:00:17;;;;;;;;;;;7.90;99.90;;;;;;2104665;28;19927;-72
2022/02/02 06:01:17;;;;;;;;;;;7.90;99.90;;;;;;2100184;28;19955;-72
2022/02/02 06:02:21;;;;;;;;;;;7.90;99.90;;;;;;2102685;28;19966;-72
2022/02/02 06:03:40;;;;;;;;;;;7.90;99.90;;;;;;2105081;28;19912;-72
2022/02/02 06:04:45;;;;;;;;;;;7.90;99.90;;;;;;2099942;28;19912;-72
2022/02/02 06:05:46;;;;;;;;;;;7.90;99.90;;;;;;2098217;28;19908;-72
2022/02/02 06:06:48;;;;;;;;;;;7.90;99.90;;;;;;2103510;28;19951;-72
2022/02/02 06:07:52;;;;;;;;;;;8.00;99.90;;;;;;2101844;28;19916;-72
2022/02/02 06:08:54;;;;;;;;;;;7.90;99.90;;;;;;2100634;28;19966;-72
2022/02/02 06:09:55;;;;;;;;;;;7.90;99.90;;;;;;2098940;28;19954;-72
2022/02/02 06:10:56;;;;;;;;;;;7.90;99.90;;;;;;2103130;28;19957;-72
2022/02/02 06:11:57;;;;;;;;;;;7.90;99.90;;;;;;2110541;27;19911;-72
2022/02/02 06:13:00;;;;;;;;;;;7.90;99.90;;;;;;2110297;28;19969;-72
2022/02/02 06:14:01;;;;;;;;;;;7.90;99.90;;;;;;2108025;28;20834;-72
2022/02/02 06:15:09;;;;;;;;;;;7.90;99.90;;;;;;2108389;28;20279;-72
2022/02/02 06:16:10;;;;;;;;;;;7.90;99.90;;;;;;2098926;28;19959;-72
2022/02/02 06:17:10;;;;;;;;;;;7.90;99.90;;;;;;2095264;28;19919;-72
2022/02/02 06:18:10;;;;;;;;;;;7.90;99.90;;;;;;2095918;28;19916;-72
2022/02/02 06:19:11;;;;;;;;;;;7.90;99.90;;;;;;2100910;28;19912;-72
2022/02/02 06:20:12;;;;;;;;;;;7.90;99.90;;;;;;2101457;28;19908;-72
2022/02/02 06:21:14;;;;;;;;;;;7.90;99.90;;;;;;2101320;28;19908;-71
2022/02/02 06:22:14;;;;;;;;;;;7.90;99.90;;;;;;2100066;28;19933;-71
2022/02/02 06:23:18;;;;;;;;;;;7.90;99.90;;;;;;2097752;28;19912;-71
2022/02/02 06:24:24;;;;;;;;;;;7.90;99.90;;;;;;2101908;28;19916;-71
2022/02/02 06:25:29;;;;;;;;;;;7.90;99.90;;;;;;2101124;28;19939;-71
2022/02/02 06:26:30;;;;;;;;;;;7.90;99.90;;;;;;2101004;28;20291;-72
2022/02/02 06:27:33;;;;;;;;;;;7.90;99.90;;;;;;2103341;28;19912;-72
2022/02/02 06:28:34;;;;;;;;;;;7.90;99.90;;;;;;2109355;28;19916;-72
2022/02/02 06:29:35;;;;;;;;;;;7.90;99.90;;;;;;2098551;28;19915;-72
2022/02/02 06:30:36;;;;;;;;;;;7.90;99.90;;;;;;2092386;28;19916;-72
2022/02/02 06:31:37;;;;;;;;;;;7.90;99.90;;;;;;2099921;28;19955;-72
2022/02/02 06:32:48;;;;;;;;;;;7.90;99.90;;;;;;2100335;28;19939;-72
2022/02/02 06:33:52;;;;;;;;;;;7.90;99.90;;;;;;2102527;28;20455;-72
2022/02/02 06:34:55;;;;;;;;;;;8.00;99.90;;;;;;2102012;28;19916;-72
2022/02/02 06:35:56;;;;;;;;;;;8.00;99.90;;;;;;2100162;28;19927;-72
2022/02/02 06:36:59;;;;;;;;;;;8.00;99.90;;;;;;2098496;28;19912;-72
2022/02/02 06:38:00;;;;;;;;;;;8.00;99.90;;;;;;2103390;28;20395;-72
2022/02/02 06:39:00;;;;;;;;;;;8.00;99.90;;;;;;2108111;28;20265;-72
2022/02/02 06:40:01;;;;;;;;;;;8.00;99.90;;;;;;2110127;28;20415;-72
2022/02/02 06:41:01;;;;;;;;;;;8.00;99.90;;;;;;2101853;28;19927;-72
2022/02/02 06:42:02;;;;;;;;;;;8.00;99.90;;;;;;2101887;28;20478;-72
2022/02/02 06:43:03;;;;;;;;;;;8.00;99.90;;;;;;2099538;28;20407;-71
2022/02/02 06:44:05;;;;;;;;;;;8.00;99.90;;;;;;2101104;28;19919;-72
2022/02/02 06:45:07;;;;;;;;;;;8.00;99.90;;;;;;2099403;28;19928;-72
2022/02/02 06:46:07;;;;;;;;;;;8.00;99.90;;;;;;2099036;28;20318;-72
2022/02/02 06:47:08;;;;;;;;;;;8.00;99.90;;;;;;2089480;28;19993;-71
2022/02/02 06:48:08;;;;;;;;;;;8.00;99.90;;;;;;2091004;28;19909;-71
2022/02/02 06:49:10;;;;;;;;;;;7.90;99.90;;;;;;2100558;28;19912;-71
2022/02/02 06:50:16;;;;;;;;;;;8.00;99.90;;;;;;2100504;28;20288;-71
2022/02/02 06:51:23;;;;;;;;;;;8.00;99.90;;;;;;2109208;28;19912;-72
2022/02/02 06:52:29;;;;;;;;;;;8.00;99.90;;;;;;2105256;28;19919;-72
2022/02/02 06:53:40;;;;;;;;;;;8.00;99.90;;;;;;2099277;28;19908;-72
2022/02/02 06:54:52;;;;;;;;;;;8.00;99.90;;;;;;2099516;28;19916;-72
2022/02/02 06:56:06;;;;;;;;;;;8.00;99.90;;;;;;2104960;28;19965;-71
2022/02/02 06:57:15;;;;;;;;;;;7.90;99.90;;;;;;2107777;28;19907;-71
2022/02/02 06:58:27;;;;;;;;;;;7.90;99.90;;;;;;2105757;28;19908;-71
2022/02/02 07:00:00;;;;;;;;;;;8.00;99.90;;;;;;2101452;28;19937;-72
2022/02/02 07:01:14;;;;;;;;;;;8.00;99.90;;;;;;2109858;28;19952;-71
2022/02/02 07:02:34;;;;;;;;;;;7.90;99.90;;;;;;2109927;28;19911;-71
2022/02/02 07:06:31;;;;;;;;;;;7.90;99.90;;;;;;2103841;28;20406;-71
2022/02/02 07:09:16;;;;;;;;;;;7.90;99.90;;;;;;2102114;28;20233;-72
2022/02/02 07:11:36;;;;;;;;;;;8.00;99.90;;;;;;2101991;28;19912;-71
2022/02/02 07:15:32;;;;;;;;;;;7.90;99.90;;;;;;2091203;28;19908;-71
2022/02/02 07:16:47;;;;;;;;;;;7.90;99.90;;;;;;2101456;28;19930;-72
2022/02/02 07:20:19;;;;;;;;;;;7.90;99.90;;;;;;2102114;28;19962;-71
2022/02/02 07:25:38;;;;;;;;;;;7.80;99.90;;;;;;2100617;28;19912;-72
2022/02/02 07:27:06;;;;;;;;;;;7.80;99.90;;;;;;2111806;28;19912;-72
2022/02/02 07:28:22;;;;;;;;;;;7.90;99.90;;;;;;2107757;28;19912;-71
2022/02/02 07:30:48;;;;;;;;;;;7.90;99.90;;;;;;2103401;28;19915;-71
2022/02/02 07:32:07;;;;;;;;;;;7.80;99.90;;;;;;2101837;28;20469;-72
2022/02/02 07:33:14;;;;;;;;;;;7.90;99.90;;;;;;2103412;28;19908;-71
2022/02/02 07:34:36;;;;;;;;;;;7.80;99.90;;;;;;2102829;28;19998;-71
2022/02/02 07:35:58;;;;;;;;;;;7.80;99.90;;;;;;2101950;28;19971;-71
2022/02/02 07:37:01;;;;;;;;;;;7.80;99.90;;;;;;2100177;28;19919;-71
2022/02/02 07:38:01;;;;;;;;;;;7.80;99.90;;;;;;2107754;28;19912;-71
2022/02/02 07:39:04;;;;;;;;;;;7.80;99.90;;;;;;2101042;28;19919;-71
2022/02/02 07:40:06;;;;;;;;;;;7.80;99.90;;;;;;2103503;28;20326;-71
2022/02/02 07:41:08;;;;;;;;;;;7.80;99.90;;;;;;2102227;28;20322;-71
2022/02/02 07:42:09;;;;;;;;;;;7.80;99.90;;;;;;2105315;28;19909;-71
2022/02/02 07:43:19;;;;;;;;;;;7.80;99.90;;;;;;2102644;28;19947;-71
2022/02/02 07:44:23;;;;;;;;;;;7.90;99.90;;;;;;2104314;28;20006;-71
2022/02/02 07:45:25;;;;;;;;;;;7.90;99.90;;;;;;2102489;28;19922;-71
2022/02/02 07:46:27;;;;;;;;;;;7.90;99.90;;;;;;2099356;28;19909;-71
2022/02/02 07:47:30;;;;;;;;;;;7.90;99.90;;;;;;2104360;28;20321;-71
2022/02/02 07:48:34;;;;;;;;;;;7.90;99.90;;;;;;2101802;28;20272;-71
2022/02/02 07:49:37;;;;;;;;;;;7.90;99.90;;;;;;2103593;28;20011;-71
2022/02/02 07:50:38;;;;;;;;;;;7.90;99.90;;;;;;2103626;28;20800;-71
2022/02/02 07:51:39;;;;;;;;;;;7.90;99.90;;;;;;2094859;28;20257;-71
2022/02/02 07:52:41;;;;;;;;;;;7.90;99.90;;;;;;2096827;28;19939;-72
2022/02/02 07:53:46;;;;;;;;;;;7.90;99.90;;;;;;2099982;28;19908;-71
2022/02/02 07:54:49;;;;;;;;;;;8.00;99.90;;;;;;2097382;28;19915;-72
2022/02/02 07:55:50;;;;;;;;;;;7.90;99.90;;;;;;2103704;28;19916;-72
2022/02/02 07:56:51;;;;;;;;;;;7.90;99.90;;;;;;2111153;28;19908;-71
2022/02/02 07:57:56;;;;;;;;;;;7.90;99.90;;;;;;2103140;28;19913;-72
2022/02/02 07:59:12;;;;;;;;;;;8.00;99.90;;;;;;2103149;28;20484;-71
2022/02/02 08:00:21;;;;;;;;;;;8.00;99.90;;;;;;2102715;28;20050;-71
2022/02/02 08:01:22;;;;;;;;;;;8.00;99.90;;;;;;2115019;27;20006;-71
2022/02/02 08:02:49;;;;;;;;;;;7.90;99.90;;;;;;2114295;27;19907;-72
2022/02/02 08:03:54;;;;;;;;;;;7.90;99.90;;;;;;2103136;28;19911;-72
2022/02/02 08:04:55;;;;;;;;;;;7.90;99.90;;;;;;2103106;28;20423;-71
2022/02/02 08:05:57;;;;;;;;;;;7.90;99.90;;;;;;2101222;28;20607;-72
2022/02/02 08:06:58;;;;;;;;;;;7.90;99.90;;;;;;2101624;28;19935;-72
2022/02/02 08:09:29;;;;;;;;;;;7.90;99.90;;;;;;2100816;28;19915;-72
2022/02/02 08:10:29;;;;;;;;;;;7.90;99.90;;;;;;2101588;28;20406;-71
2022/02/02 08:11:33;;;;;;;;;;;7.90;99.90;;;;;;2100184;28;20325;-71
2022/02/02 08:12:43;;;;;;;;;;;7.90;99.90;;;;;;2099913;28;20001;-72
2022/02/02 08:13:47;;;;;;;;;;;8.00;99.90;;;;;;2103115;28;20275;-72
2022/02/02 08:14:55;;;;;;;;;;;8.00;99.90;;;;;;2110196;28;19919;-72
2022/02/02 08:16:00;;;;;;;;;;;8.00;99.90;;;;;;2108390;28;20002;-72
2022/02/02 08:17:00;;;;;;;;;;;7.90;99.90;;;;;;2102850;28;20364;-72
2022/02/02 08:18:01;;;;;;;;;;;8.00;99.90;;;;;;2099998;28;20276;-72
2022/02/02 08:19:03;;;;;;;;;;;8.00;99.90;;;;;;2098826;28;20532;-71
2022/02/02 08:20:04;;;;;;;;;;;8.00;99.90;;;;;;2104141;28;20348;-72
2022/02/02 08:21:04;;;;;;;;;;;8.00;99.90;;;;;;2096771;28;19908;-72
2022/02/02 08:22:05;;;;;;;;;;;8.00;99.90;;;;;;2093344;28;19913;-72
2022/02/02 08:23:05;;;;;;;;;;;8.00;99.90;;;;;;2090402;28;19999;-72
2022/02/02 08:24:08;;;;;;;;;;;8.00;99.90;;;;;;2097539;28;19908;-72
2022/02/02 08:25:10;;;;;;;;;;;8.00;99.90;;;;;;2099760;28;19913;-72
2022/02/02 08:26:15;;;;;;;;;;;8.00;99.90;;;;;;2097849;28;20356;-72
2022/02/02 08:27:16;;;;;;;;;;;8.00;99.90;;;;;;2102617;28;19908;-71
2022/02/02 08:28:17;;;;;;;;;;;8.00;99.90;;;;;;2102169;28;19962;-72
2022/02/02 08:29:18;;;;;;;;;;;8.00;99.90;;;;;;2101522;28;19908;-71
2022/02/02 08:30:20;;;;;;;;;;;8.00;99.90;;;;;;2108620;28;19919;-71
2022/02/02 08:31:21;;;;;;;;;;;8.00;99.90;;;;;;2108108;28;20275;-71
2022/02/02 08:32:23;;;;;;;;;;;8.00;99.90;;;;;;2101813;28;19908;-72
2022/02/02 08:33:28;;;;;;;;;;;8.00;99.90;;;;;;2105291;28;19991;-71
2022/02/02 08:34:29;;;;;;;;;;;8.00;99.90;;;;;;2105515;28;20436;-72
2022/02/02 08:35:31;;;;;;;;;;;8.10;99.90;;;;;;2106005;28;20316;-71
2022/02/02 08:36:32;;;;;;;;;;;8.10;99.90;;;;;;2108187;28;19908;-72
2022/02/02 08:37:35;;;;;;;;;;;8.10;99.90;;;;;;2101911;28;19995;-71
2022/02/02 08:39:59;;;;;;;;;;;8.10;99.90;;;;;;2101574;28;19919;-71
2022/02/02 08:41:06;;;;;;;;;;;8.10;99.90;;;;;;2101471;28;19911;-72
2022/02/02 08:42:10;;;;;;;;;;;8.10;99.90;;;;;;2097845;28;19918;-72
2022/02/02 08:43:16;;;;;;;;;;;8.20;99.90;;;;;;2098179;28;19913;-71
2022/02/02 08:44:23;;;;;;;;;;;8.20;99.90;;;;;;2102334;28;19909;-72
2022/02/02 08:45:27;;;;;;;;;;;8.20;99.90;;;;;;2097857;28;20412;-71
2022/02/02 08:46:41;;;;;;;;;;;8.20;99.90;;;;;;2101130;28;19912;-71
2022/02/02 08:47:47;;;;;;;;;;;8.20;99.90;;;;;;2101087;28;19923;-71
2022/02/02 08:48:50;;;;;;;;;;;8.30;99.90;;;;;;2103628;28;19916;-71
2022/02/02 08:49:56;;;;;;;;;;;8.30;99.90;;;;;;2102937;28;19915;-71
2022/02/02 08:51:04;;;;;;;;;;;8.30;99.90;;;;;;2101663;28;20286;-71
2022/02/02 08:52:05;;;;;;;;;;;8.30;99.90;;;;;;2101495;28;20029;-72
2022/02/02 08:53:16;;;;;;;;;;;8.30;99.90;;;;;;2099620;28;19908;-72
2022/02/02 08:55:20;;;;;;;;;;;8.30;99.90;;;;;;2100016;28;20015;-71
2022/02/02 08:57:44;;;;;;;;;;;8.30;99.90;;;;;;2101122;28;19968;-71
2022/02/02 08:58:47;;;;;;;;;;;8.40;99.90;;;;;;2101482;28;19909;-71
2022/02/02 08:59:57;;;;;;;;;;;8.40;99.90;;;;;;2099137;28;20663;-71
2022/02/02 09:00:59;;;;;;;;;;;8.40;99.90;;;;;;2099357;28;19912;-71
2022/02/02 09:02:03;;;;;;;;;;;8.40;99.90;;;;;;2101402;28;19991;-71
2022/02/02 09:05:20;;;;;;;;;;;8.40;99.90;;;;;;2099660;28;19912;-71
2022/02/02 09:05:58;;;;;;;;;;;8.50;99.90;;;;;;2100265;28;19912;-71
2022/02/02 09:06:59;;;;;;;;;;;8.40;99.90;;;;;;2100214;28;19912;-71
2022/02/02 09:07:59;;;;;;;;;;;8.50;99.90;;;;;;2092596;28;19940;-71
2022/02/02 09:09:10;;;;;;;;;;;8.50;99.90;;;;;;2092539;28;19955;-71
2022/02/02 09:10:15;;;;;;;;;;;8.50;99.90;;;;;;2101973;28;19912;-71
2022/02/02 09:20:04;;;;;;;;;;;8.60;99.90;;;;;;2100608;28;19912;-71
2022/02/02 09:21:46;;;;;;;;;;;8.60;99.90;;;;;;2104216;28;19955;-71
2022/02/02 09:24:35;;;;;;;;;;;8.70;99.90;;;;;;2101606;28;19909;-71
2022/02/02 09:32:18;;;;;;;;;;;8.70;99.90;;;;;;2098699;28;19913;-71
2022/02/02 09:33:51;;;;;;;;;;;8.80;99.90;;;;;;2105122;28;20272;-71
2022/02/02 09:34:48;;;;;;;;;;;8.80;99.90;;;;;;2104797;28;19908;-71
2022/02/02 09:35:50;;;;;;;;;;;8.80;99.90;;;;;;2096699;28;19913;-71
2022/02/02 09:36:52;;;;;;;;;;;8.80;99.90;;;;;;2100468;28;20352;-71
2022/02/02 09:37:53;;;;;;;;;;;8.80;99.90;;;;;;2104226;28;19908;-71
2022/02/02 09:38:55;;;;;;;;;;;8.90;99.90;;;;;;2103246;28;19962;-71
2022/02/02 09:40:11;;;;;;;;;;;8.90;99.90;;;;;;2101642;28;19930;-71
2022/02/02 09:42:15;;;;;;;;;;;8.90;99.90;;;;;;2099488;28;19951;-71
2022/02/02 09:43:19;;;;;;;;;;;8.90;99.90;;;;;;2100252;28;19962;-71
2022/02/02 09:44:23;;;;;;;;;;;8.90;99.90;;;;;;2100956;28;19931;-71
2022/02/02 09:45:26;;;;;;;;;;;8.90;99.90;;;;;;2105645;28;20421;-71
2022/02/02 09:46:33;;;;;;;;;;;8.90;99.90;;;;;;2104714;28;19908;-71
2022/02/02 09:47:42;;;;;;;;;;;8.90;99.90;;;;;;2103040;28;20268;-71
2022/02/02 09:48:50;;;;;;;;;;;9.00;99.90;;;;;;2099141;28;20007;-71
2022/02/02 09:50:09;;;;;;;;;;;9.00;99.90;;;;;;2105195;28;20320;-71
2022/02/02 09:51:13;;;;;;;;;;;9.00;99.90;;;;;;2100877;28;19915;-71
2022/02/02 09:52:17;;;;;;;;;;;9.00;99.90;;;;;;2100501;28;19916;-71
2022/02/02 09:53:34;;;;;;;;;;;9.00;99.90;;;;;;2100876;28;20003;-71
2022/02/02 09:54:43;;;;;;;;;;;9.00;99.90;;;;;;2100811;28;20417;-71
2022/02/02 09:56:06;;;;;;;;;;;9.10;99.90;;;;;;2100292;28;19916;-71
2022/02/02 10:02:34;;;;;;;;;;;9.10;99.90;;;;;;2100527;28;19983;-71
2022/02/02 10:05:01;;;;;;;;;;;9.10;99.90;;;;;;2099379;28;19930;-71
2022/02/02 10:06:31;;;;;;;;;;;9.10;99.90;;;;;;2097535;28;19919;-71
2022/02/02 10:10:04;;;;;;;;;;;9.10;99.90;;;;;;2100915;28;20008;-71
2022/02/02 10:11:46;;;;;;;;;;;9.10;99.90;;;;;;2100789;28;19961;-71
2022/02/02 10:13:01;;;;;;;;;;;9.20;99.90;;;;;;2098746;28;19916;-71
2022/02/02 10:14:16;;;;;;;;;;;9.20;99.90;;;;;;2097892;28;19915;-71
2022/02/02 10:15:20;;;;;;;;;;;9.20;99.90;;;;;;2103169;28;19999;-71
2022/02/02 10:16:25;;;;;;;;;;;9.20;99.90;;;;;;2099684;28;21288;-71
2022/02/02 10:17:29;;;;;;;;;;;9.20;99.90;;;;;;2093062;28;20412;-71
2022/02/02 10:18:32;;;;;;;;;;;9.20;99.90;;;;;;2096789;28;19925;-71
2022/02/02 10:19:36;;;;;;;;;;;9.30;99.90;;;;;;2109379;27;19920;-72
2022/02/02 10:20:37;;;;;;;;;;;9.30;99.90;;;;;;2108131;28;19916;-71
2022/02/02 10:21:37;;;;;;;;;;;9.30;99.90;;;;;;2101620;28;19997;-71
2022/02/02 10:22:44;;;;;;;;;;;9.30;99.90;;;;;;2098868;28;19927;-71
2022/02/02 10:23:47;;;;;;;;;;;9.30;99.90;;;;;;2104652;28;20460;-71
2022/02/02 10:24:52;;;;;;;;;;;9.30;99.90;;;;;;2103774;28;20035;-71
2022/02/02 10:25:57;;;;;;;;;;;9.40;99.90;;;;;;2101119;28;19912;-71
2022/02/02 10:26:58;;;;;;;;;;;9.40;99.90;;;;;;2098295;28;19908;-71
2022/02/02 10:28:06;;;;;;;;;;;9.40;99.90;;;;;;2097040;28;19919;-71
2022/02/02 10:29:07;;;;;;;;;;;9.40;99.90;;;;;;2100426;28;19914;-71
2022/02/02 10:30:09;;;;;;;;;;;9.40;99.90;;;;;;2098771;28;20544;-71
2022/02/02 10:31:09;;;;;;;;;;;9.40;99.90;;;;;;2101297;28;19995;-71